Time;durP1;ratioP1;P1;durP2;ratioP2;P2;SDS_P1;SDS_P2;PMS_P1;PMS_P2;Temp;Humidity;BMP_temperature;BMP_pressure;BME280_temperature;BME280_humidity;BME280_pressure;Samples;Min_cycle;Max_cycle;Signal;HPM_P1;HPM_P2
2021/06/30 00:00:17;;;;;;;;;;;20.90;62.60;;;;;;461478;258;1079;-46
2021/06/30 00:02:19;;;;;;;;;;;20.90;62.70;;;;;;469538;253;1657;-46
2021/06/30 00:04:20;;;;;;;;;;;20.90;62.70;;;;;;469641;253;1043;-46
2021/06/30 00:06:21;;;;;;;;;;;20.90;62.70;;;;;;461697;257;1174;-46
2021/06/30 00:08:23;;;;;;;;;;;20.90;62.70;;;;;;469663;253;1163;-46
2021/06/30 00:10:24;;;;;;;;;;;20.90;62.70;;;;;;469675;253;1068;-46
2021/06/30 00:12:25;;;;;;;;;;;20.90;62.70;;;;;;461411;257;1235;-46
2021/06/30 00:14:27;;;;;;;;;;;20.90;62.70;;;;;;470018;253;1040;-46
2021/06/30 00:16:31;;;;;;;;;;;20.90;62.80;;;;;;469602;253;1461;-46
2021/06/30 00:18:29;;;;;;;;;;;20.90;62.80;;;;;;461265;258;2215;-46
2021/06/30 00:20:31;;;;;;;;;;;20.90;62.80;;;;;;469902;253;1061;-46
2021/06/30 00:22:32;;;;;;;;;;;20.90;62.80;;;;;;470012;253;1184;-46
2021/06/30 00:24:33;;;;;;;;;;;20.90;62.80;;;;;;461688;257;978;-46
2021/06/30 00:26:35;;;;;;;;;;;20.90;62.70;;;;;;469662;253;1297;-46
2021/06/30 00:28:36;;;;;;;;;;;20.90;62.70;;;;;;469794;253;1135;-46
2021/06/30 00:30:37;;;;;;;;;;;20.90;62.70;;;;;;461647;257;1083;-46
2021/06/30 00:32:39;;;;;;;;;;;20.90;62.70;;;;;;469693;253;1088;-46
2021/06/30 00:34:40;;;;;;;;;;;20.90;62.70;;;;;;470101;253;1228;-46
2021/06/30 00:36:43;;;;;;;;;;;20.90;62.80;;;;;;461441;258;1364;-46
2021/06/30 00:38:43;;;;;;;;;;;20.90;62.70;;;;;;469633;254;2199;-46
2021/06/30 00:40:44;;;;;;;;;;;20.90;62.70;;;;;;469594;253;1199;-46
2021/06/30 00:42:46;;;;;;;;;;;20.90;62.80;;;;;;461460;258;1174;-46
2021/06/30 00:44:47;;;;;;;;;;;20.90;62.80;;;;;;469806;253;1067;-46
2021/06/30 00:46:48;;;;;;;;;;;20.90;62.70;;;;;;469872;253;1344;-46
2021/06/30 00:48:49;;;;;;;;;;;20.90;62.70;;;;;;461928;257;1088;-46
2021/06/30 00:50:51;;;;;;;;;;;20.90;62.70;;;;;;469641;253;1242;-46
2021/06/30 00:52:52;;;;;;;;;;;20.90;62.70;;;;;;470142;253;1182;-46
2021/06/30 00:54:53;;;;;;;;;;;20.90;62.60;;;;;;461888;257;1086;-46
2021/06/30 00:56:55;;;;;;;;;;;20.80;62.60;;;;;;469625;253;1364;-46
2021/06/30 00:58:56;;;;;;;;;;;20.90;62.70;;;;;;469778;253;2203;-46
2021/06/30 01:00:57;;;;;;;;;;;20.90;62.70;;;;;;461528;258;1088;-46
2021/06/30 01:02:59;;;;;;;;;;;20.90;62.70;;;;;;469722;253;1077;-46
2021/06/30 01:05:00;;;;;;;;;;;20.90;62.70;;;;;;469707;253;1059;-46
2021/06/30 01:07:01;;;;;;;;;;;20.90;62.70;;;;;;461451;258;1323;-46
2021/06/30 01:09:04;;;;;;;;;;;20.90;62.80;;;;;;469810;253;1004;-46
2021/06/30 01:11:05;;;;;;;;;;;20.90;62.70;;;;;;469820;253;1227;-46
2021/06/30 01:13:06;;;;;;;;;;;20.80;62.70;;;;;;461520;257;1176;-45
2021/06/30 01:15:07;;;;;;;;;;;20.90;62.70;;;;;;469971;253;1073;-46
2021/06/30 01:17:09;;;;;;;;;;;20.90;62.80;;;;;;469601;253;1121;-46
2021/06/30 01:19:10;;;;;;;;;;;20.80;62.80;;;;;;461464;258;2207;-46
2021/06/30 01:21:11;;;;;;;;;;;20.90;62.70;;;;;;469899;253;1154;-46
2021/06/30 01:23:13;;;;;;;;;;;20.90;62.70;;;;;;469713;253;1114;-46
2021/06/30 01:25:14;;;;;;;;;;;20.90;62.70;;;;;;461884;257;1056;-46
2021/06/30 01:27:18;;;;;;;;;;;20.90;62.70;;;;;;469643;253;1212;-46
2021/06/30 01:29:17;;;;;;;;;;;20.90;62.70;;;;;;469963;254;1288;-46
2021/06/30 01:31:18;;;;;;;;;;;20.90;62.60;;;;;;461462;258;1083;-46
2021/06/30 01:33:19;;;;;;;;;;;20.90;62.60;;;;;;469929;253;1068;-46
2021/06/30 01:35:21;;;;;;;;;;;20.90;62.70;;;;;;469650;253;1572;-46
2021/06/30 01:37:22;;;;;;;;;;;20.90;62.70;;;;;;461730;257;1059;-46
2021/06/30 01:39:23;;;;;;;;;;;20.90;62.70;;;;;;469946;253;2143;-46
2021/06/30 01:41:25;;;;;;;;;;;20.90;62.70;;;;;;469697;253;1091;-46
2021/06/30 01:43:26;;;;;;;;;;;20.90;62.70;;;;;;461623;257;1169;-45
2021/06/30 01:45:27;;;;;;;;;;;20.90;62.70;;;;;;470108;253;1078;-45
2021/06/30 01:47:29;;;;;;;;;;;20.90;62.80;;;;;;470135;253;1110;-46
2021/06/30 01:49:30;;;;;;;;;;;20.90;62.80;;;;;;461602;258;1134;-46
2021/06/30 01:51:31;;;;;;;;;;;20.90;62.80;;;;;;469722;253;1304;-46
2021/06/30 01:53:33;;;;;;;;;;;20.90;62.70;;;;;;470094;253;1085;-46
2021/06/30 01:55:35;;;;;;;;;;;20.90;62.80;;;;;;461604;257;1129;-46
2021/06/30 01:57:35;;;;;;;;;;;20.80;62.80;;;;;;469862;253;2393;-46
2021/06/30 01:59:37;;;;;;;;;;;20.80;62.80;;;;;;469930;253;2164;-46
2021/06/30 02:01:38;;;;;;;;;;;20.80;62.80;;;;;;461453;258;1353;-46
2021/06/30 02:03:39;;;;;;;;;;;20.90;62.70;;;;;;469845;253;1071;-46
2021/06/30 02:05:41;;;;;;;;;;;20.90;62.80;;;;;;469644;253;1064;-46
2021/06/30 02:07:42;;;;;;;;;;;20.90;62.80;;;;;;461437;258;1294;-46
2021/06/30 02:09:43;;;;;;;;;;;20.90;62.80;;;;;;469696;253;1116;-46
2021/06/30 02:11:45;;;;;;;;;;;20.80;62.80;;;;;;469619;253;1364;-46
2021/06/30 02:13:46;;;;;;;;;;;20.90;62.90;;;;;;461625;257;1125;-46
2021/06/30 02:15:47;;;;;;;;;;;20.90;62.80;;;;;;469824;253;1133;-46
2021/06/30 02:17:49;;;;;;;;;;;20.90;62.80;;;;;;469763;253;1307;-46
2021/06/30 02:19:50;;;;;;;;;;;20.90;62.80;;;;;;461801;257;2204;-46
2021/06/30 02:21:51;;;;;;;;;;;20.90;62.80;;;;;;469583;253;1375;-46
2021/06/30 02:23:53;;;;;;;;;;;20.90;62.80;;;;;;469809;253;1174;-46
2021/06/30 02:25:54;;;;;;;;;;;20.80;62.80;;;;;;461529;257;1476;-46
2021/06/30 02:27:55;;;;;;;;;;;20.90;62.80;;;;;;469651;253;1209;-46
2021/06/30 02:29:57;;;;;;;;;;;20.80;62.90;;;;;;469950;253;1127;-46
2021/06/30 02:31:58;;;;;;;;;;;20.90;62.90;;;;;;461538;257;1738;-46
2021/06/30 02:33:59;;;;;;;;;;;20.80;62.80;;;;;;469944;253;1116;-46
2021/06/30 02:36:00;;;;;;;;;;;20.90;62.80;;;;;;469668;253;1266;-46
2021/06/30 02:38:02;;;;;;;;;;;20.90;62.80;;;;;;461730;257;1236;-46
2021/06/30 02:40:03;;;;;;;;;;;20.90;62.80;;;;;;469832;253;2200;-45
2021/06/30 02:42:05;;;;;;;;;;;20.90;62.80;;;;;;469774;253;1159;-46
2021/06/30 02:44:06;;;;;;;;;;;20.90;62.80;;;;;;461642;257;1161;-46
2021/06/30 02:46:07;;;;;;;;;;;20.90;62.80;;;;;;469935;253;1477;-46
2021/06/30 02:48:09;;;;;;;;;;;20.90;62.80;;;;;;469696;253;1102;-46
2021/06/30 02:50:10;;;;;;;;;;;20.80;62.80;;;;;;461770;257;1044;-46
2021/06/30 02:52:12;;;;;;;;;;;20.90;62.80;;;;;;469687;253;1298;-46
2021/06/30 02:54:13;;;;;;;;;;;20.90;62.80;;;;;;470151;253;1054;-46
2021/06/30 02:56:14;;;;;;;;;;;20.90;62.70;;;;;;461496;258;1144;-46
2021/06/30 02:58:15;;;;;;;;;;;20.90;62.80;;;;;;469643;253;1173;-46
2021/06/30 03:00:17;;;;;;;;;;;20.80;62.80;;;;;;469623;253;2240;-46
2021/06/30 03:02:18;;;;;;;;;;;20.80;62.80;;;;;;461408;258;1231;-46
2021/06/30 03:04:19;;;;;;;;;;;20.90;62.80;;;;;;469961;253;1121;-46
2021/06/30 03:06:21;;;;;;;;;;;20.80;62.80;;;;;;469662;253;1485;-46
2021/06/30 03:08:22;;;;;;;;;;;20.80;62.80;;;;;;461500;258;1085;-46
2021/06/30 03:10:23;;;;;;;;;;;20.80;62.80;;;;;;470030;253;1085;-46
2021/06/30 03:12:25;;;;;;;;;;;20.80;62.90;;;;;;469599;253;1590;-46
2021/06/30 03:14:26;;;;;;;;;;;20.90;62.90;;;;;;461554;258;1165;-46
2021/06/30 03:16:27;;;;;;;;;;;20.90;62.80;;;;;;469929;253;1320;-46
2021/06/30 03:18:29;;;;;;;;;;;20.90;62.70;;;;;;469692;253;2191;-46
2021/06/30 03:20:30;;;;;;;;;;;20.90;62.70;;;;;;461910;257;1091;-46
2021/06/30 03:22:31;;;;;;;;;;;20.90;62.70;;;;;;469723;253;1233;-46
2021/06/30 03:24:33;;;;;;;;;;;20.90;62.70;;;;;;469823;253;1042;-46
2021/06/30 03:26:34;;;;;;;;;;;20.90;62.70;;;;;;461799;257;1216;-46
2021/06/30 03:28:35;;;;;;;;;;;20.90;62.80;;;;;;469805;253;1162;-46
2021/06/30 03:30:37;;;;;;;;;;;20.90;62.80;;;;;;470118;253;1047;-46
2021/06/30 03:32:38;;;;;;;;;;;20.90;62.80;;;;;;461515;257;1178;-46
2021/06/30 03:34:39;;;;;;;;;;;20.90;62.80;;;;;;469963;253;1078;-46
2021/06/30 03:36:41;;;;;;;;;;;20.90;62.80;;;;;;469825;253;1368;-46
2021/06/30 03:38:42;;;;;;;;;;;20.90;62.80;;;;;;461497;258;2195;-46
2021/06/30 03:40:43;;;;;;;;;;;20.90;62.80;;;;;;470088;253;1048;-46
2021/06/30 03:42:44;;;;;;;;;;;20.90;62.80;;;;;;470073;253;1137;-45
2021/06/30 03:44:46;;;;;;;;;;;20.90;62.70;;;;;;461568;258;1184;-46
2021/06/30 03:46:47;;;;;;;;;;;20.90;62.70;;;;;;469661;253;1554;-46
2021/06/30 03:48:49;;;;;;;;;;;20.90;62.80;;;;;;470006;253;1089;-46
2021/06/30 03:50:50;;;;;;;;;;;20.90;62.80;;;;;;461862;257;1165;-46
2021/06/30 03:52:51;;;;;;;;;;;20.90;62.80;;;;;;469568;253;1498;-46
2021/06/30 03:54:53;;;;;;;;;;;20.90;62.80;;;;;;469953;253;1078;-46
2021/06/30 03:56:55;;;;;;;;;;;20.90;62.70;;;;;;461360;258;1326;-46
2021/06/30 03:58:58;;;;;;;;;;;20.90;62.70;;;;;;469701;253;2192;-46
2021/06/30 04:00:58;;;;;;;;;;;20.90;62.80;;;;;;469596;254;2145;-46
2021/06/30 04:02:59;;;;;;;;;;;20.80;62.80;;;;;;461933;257;1119;-46
2021/06/30 04:05:00;;;;;;;;;;;20.90;62.80;;;;;;470119;253;1036;-46
2021/06/30 04:07:02;;;;;;;;;;;20.90;62.70;;;;;;469644;250;1274;-46
2021/06/30 04:09:03;;;;;;;;;;;20.90;62.70;;;;;;461887;257;1103;-46
2021/06/30 04:11:04;;;;;;;;;;;20.90;62.80;;;;;;469627;253;1272;-46
2021/06/30 04:13:06;;;;;;;;;;;20.90;62.70;;;;;;469784;253;1091;-46
2021/06/30 04:15:07;;;;;;;;;;;20.90;62.70;;;;;;461453;258;1259;-46
2021/06/30 04:17:08;;;;;;;;;;;20.80;62.80;;;;;;469972;253;1465;-46
2021/06/30 04:19:10;;;;;;;;;;;20.90;62.80;;;;;;469687;253;2195;-46
2021/06/30 04:21:11;;;;;;;;;;;20.80;62.80;;;;;;461846;257;1084;-46
2021/06/30 04:23:12;;;;;;;;;;;20.80;62.80;;;;;;469702;253;1043;-46
2021/06/30 04:25:14;;;;;;;;;;;20.80;62.90;;;;;;469681;253;1064;-46
2021/06/30 04:27:15;;;;;;;;;;;20.90;62.80;;;;;;461428;257;1599;-46
2021/06/30 04:29:16;;;;;;;;;;;20.80;62.90;;;;;;469825;253;1202;-46
2021/06/30 04:31:18;;;;;;;;;;;20.80;62.80;;;;;;469541;253;1370;-46
2021/06/30 04:33:19;;;;;;;;;;;20.90;62.80;;;;;;461520;257;1123;-46
2021/06/30 04:35:20;;;;;;;;;;;20.90;62.80;;;;;;469809;253;1048;-46
2021/06/30 04:37:22;;;;;;;;;;;20.90;62.70;;;;;;469464;253;1676;-46
2021/06/30 04:39:27;;;;;;;;;;;20.90;62.80;;;;;;461592;257;2212;-46
2021/06/30 04:41:25;;;;;;;;;;;20.90;62.80;;;;;;469556;254;2331;-46
2021/06/30 04:43:26;;;;;;;;;;;20.90;62.80;;;;;;469677;253;1088;-46
2021/06/30 04:45:27;;;;;;;;;;;20.90;62.80;;;;;;461445;258;1198;-45
2021/06/30 04:47:29;;;;;;;;;;;20.90;62.90;;;;;;469572;253;1505;-46
2021/06/30 04:49:30;;;;;;;;;;;20.80;62.80;;;;;;469577;253;1179;-46
2021/06/30 04:51:31;;;;;;;;;;;20.80;62.80;;;;;;461480;254;1551;-45
2021/06/30 04:53:33;;;;;;;;;;;20.80;62.80;;;;;;469546;253;1204;-46
2021/06/30 04:55:34;;;;;;;;;;;20.90;62.90;;;;;;469565;253;1067;-46
2021/06/30 04:57:35;;;;;;;;;;;20.90;62.80;;;;;;461291;257;1253;-46
2021/06/30 04:59:37;;;;;;;;;;;20.80;62.90;;;;;;469456;253;2204;-46
2021/06/30 05:01:38;;;;;;;;;;;20.80;62.90;;;;;;469514;253;1195;-45
2021/06/30 05:03:39;;;;;;;;;;;20.80;62.80;;;;;;461385;257;1064;-46
2021/06/30 05:05:41;;;;;;;;;;;20.80;62.80;;;;;;469430;253;1440;-46
2021/06/30 05:07:42;;;;;;;;;;;20.80;62.80;;;;;;469395;253;1178;-46
2021/06/30 05:09:45;;;;;;;;;;;20.80;62.90;;;;;;461394;257;1049;-45
2021/06/30 05:11:45;;;;;;;;;;;20.80;62.80;;;;;;469614;254;1409;-46
2021/06/30 05:13:46;;;;;;;;;;;20.80;62.80;;;;;;469676;253;1133;-46
2021/06/30 05:15:47;;;;;;;;;;;20.90;62.80;;;;;;461328;258;1250;-46
2021/06/30 05:17:48;;;;;;;;;;;20.80;62.70;;;;;;469584;253;1259;-45
2021/06/30 05:19:50;;;;;;;;;;;20.80;62.80;;;;;;469360;253;2211;-46
2021/06/30 05:21:51;;;;;;;;;;;20.80;62.90;;;;;;461353;257;1466;-46
2021/06/30 05:23:54;;;;;;;;;;;20.80;62.90;;;;;;469452;253;1159;-45
2021/06/30 05:25:55;;;;;;;;;;;20.90;62.90;;;;;;469519;253;1463;-46
2021/06/30 05:27:57;;;;;;;;;;;20.90;62.80;;;;;;461297;257;1087;-46
2021/06/30 05:29:58;;;;;;;;;;;20.80;62.80;;;;;;469550;253;1256;-46
2021/06/30 05:31:59;;;;;;;;;;;20.80;62.90;;;;;;469383;253;1400;-46
2021/06/30 05:34:01;;;;;;;;;;;20.80;62.90;;;;;;461233;257;1143;-46
2021/06/30 05:36:02;;;;;;;;;;;20.80;62.90;;;;;;469358;253;1147;-46
2021/06/30 05:38:03;;;;;;;;;;;20.80;63.00;;;;;;469602;253;1349;-46
2021/06/30 05:40:04;;;;;;;;;;;20.80;62.80;;;;;;461204;257;2198;-46
2021/06/30 05:42:06;;;;;;;;;;;20.90;62.80;;;;;;469424;253;1171;-46
2021/06/30 05:44:09;;;;;;;;;;;20.90;62.80;;;;;;469548;253;1052;-46
2021/06/30 05:46:09;;;;;;;;;;;20.80;62.70;;;;;;461343;258;2162;-46
2021/06/30 05:48:10;;;;;;;;;;;20.90;62.80;;;;;;469474;253;1127;-46
2021/06/30 05:50:11;;;;;;;;;;;20.90;62.80;;;;;;469465;253;1187;-46
2021/06/30 05:52:12;;;;;;;;;;;20.90;62.80;;;;;;461187;257;1235;-46
2021/06/30 05:54:14;;;;;;;;;;;20.80;62.80;;;;;;469318;253;1104;-46
2021/06/30 05:56:15;;;;;;;;;;;20.80;62.80;;;;;;469306;253;1208;-46
2021/06/30 05:58:16;;;;;;;;;;;20.80;62.90;;;;;;461200;258;1098;-46
2021/06/30 06:00:19;;;;;;;;;;;20.80;62.90;;;;;;469517;253;2137;-46
2021/06/30 06:02:19;;;;;;;;;;;20.80;62.90;;;;;;469164;253;1141;-46
2021/06/30 06:04:21;;;;;;;;;;;20.80;62.80;;;;;;461087;257;1193;-46
2021/06/30 06:06:22;;;;;;;;;;;20.80;62.80;;;;;;469153;253;1245;-46
2021/06/30 06:08:23;;;;;;;;;;;20.80;62.80;;;;;;469461;253;1194;-46
2021/06/30 06:10:25;;;;;;;;;;;20.80;62.80;;;;;;461107;258;1125;-46
2021/06/30 06:12:26;;;;;;;;;;;20.80;62.80;;;;;;469195;253;1120;-46
2021/06/30 06:14:27;;;;;;;;;;;20.80;62.80;;;;;;469259;253;1094;-46
2021/06/30 06:16:29;;;;;;;;;;;20.80;62.80;;;;;;460512;258;1275;-46
2021/06/30 06:18:30;;;;;;;;;;;20.80;62.80;;;;;;463791;254;1141;-46
2021/06/30 06:20:31;;;;;;;;;;;20.80;62.90;;;;;;469401;250;2203;-46
2021/06/30 06:22:33;;;;;;;;;;;20.80;62.90;;;;;;461040;258;1341;-46
2021/06/30 06:24:34;;;;;;;;;;;20.80;62.90;;;;;;469323;253;1076;-46
2021/06/30 06:26:35;;;;;;;;;;;20.80;62.90;;;;;;469236;253;1406;-46
2021/06/30 06:28:37;;;;;;;;;;;20.80;62.80;;;;;;461250;257;1128;-46
2021/06/30 06:30:38;;;;;;;;;;;20.80;62.80;;;;;;469189;253;1295;-46
2021/06/30 06:32:39;;;;;;;;;;;20.80;62.80;;;;;;469252;253;1123;-46
2021/06/30 06:34:40;;;;;;;;;;;20.80;62.80;;;;;;461104;258;1133;-46
2021/06/30 06:36:42;;;;;;;;;;;20.80;62.80;;;;;;469203;253;1505;-45
2021/06/30 06:38:45;;;;;;;;;;;20.80;62.80;;;;;;469349;253;1114;-46
2021/06/30 06:40:44;;;;;;;;;;;20.80;62.90;;;;;;461120;258;2215;-46
2021/06/30 06:42:46;;;;;;;;;;;20.80;62.80;;;;;;469268;253;1070;-45
2021/06/30 06:44:47;;;;;;;;;;;20.80;62.80;;;;;;469365;253;1081;-46
2021/06/30 06:46:48;;;;;;;;;;;20.80;62.90;;;;;;460986;257;1881;-46
2021/06/30 06:48:50;;;;;;;;;;;20.80;62.90;;;;;;469135;253;1160;-46
2021/06/30 06:50:51;;;;;;;;;;;20.80;63.00;;;;;;469074;253;1516;-46
2021/06/30 06:52:52;;;;;;;;;;;20.80;62.90;;;;;;461116;257;1336;-46
2021/06/30 06:54:54;;;;;;;;;;;20.80;62.90;;;;;;469151;253;1114;-46
2021/06/30 06:56:55;;;;;;;;;;;20.80;62.90;;;;;;469095;253;1493;-46
2021/06/30 06:58:56;;;;;;;;;;;20.80;63.00;;;;;;461076;257;1118;-46
2021/06/30 07:00:58;;;;;;;;;;;20.80;62.90;;;;;;469056;253;2203;-46
2021/06/30 07:02:59;;;;;;;;;;;20.80;62.90;;;;;;469118;253;1380;-46
2021/06/30 07:05:00;;;;;;;;;;;20.80;62.80;;;;;;460990;257;1110;-46
2021/06/30 07:07:02;;;;;;;;;;;20.80;63.00;;;;;;468942;250;1467;-46
2021/06/30 07:09:03;;;;;;;;;;;20.80;62.90;;;;;;468275;253;1126;-46
2021/06/30 07:11:04;;;;;;;;;;;20.80;62.90;;;;;;460831;257;1177;-46
2021/06/30 07:13:06;;;;;;;;;;;20.80;63.00;;;;;;469608;253;1217;-46
2021/06/30 07:15:07;;;;;;;;;;;20.80;63.00;;;;;;469065;253;1096;-46
2021/06/30 07:17:08;;;;;;;;;;;20.80;62.90;;;;;;460963;257;1499;-46
2021/06/30 07:19:10;;;;;;;;;;;20.80;62.90;;;;;;469341;253;1076;-46
2021/06/30 07:21:11;;;;;;;;;;;20.80;62.90;;;;;;469052;253;2203;-46
2021/06/30 07:23:12;;;;;;;;;;;20.80;62.90;;;;;;460908;257;1176;-46
2021/06/30 07:25:16;;;;;;;;;;;20.80;62.90;;;;;;468985;253;1093;-46
2021/06/30 07:27:15;;;;;;;;;;;20.80;62.90;;;;;;468838;254;1450;-46
2021/06/30 07:29:16;;;;;;;;;;;20.80;63.00;;;;;;460927;257;1113;-46
2021/06/30 07:31:17;;;;;;;;;;;20.80;62.90;;;;;;468917;253;1316;-46
2021/06/30 07:33:19;;;;;;;;;;;20.80;63.00;;;;;;468978;253;1209;-46
2021/06/30 07:35:20;;;;;;;;;;;20.80;63.00;;;;;;460791;258;1356;-46
2021/06/30 07:37:21;;;;;;;;;;;20.80;63.00;;;;;;468809;253;1082;-46
2021/06/30 07:39:24;;;;;;;;;;;20.80;62.90;;;;;;468824;253;1114;-46
2021/06/30 07:41:24;;;;;;;;;;;20.90;62.90;;;;;;460727;257;2203;-46
2021/06/30 07:43:26;;;;;;;;;;;20.80;62.90;;;;;;468792;253;1174;-46
2021/06/30 07:45:27;;;;;;;;;;;20.80;62.90;;;;;;468629;253;1094;-46
2021/06/30 07:47:28;;;;;;;;;;;20.80;62.90;;;;;;460574;257;1144;-46
2021/06/30 07:49:30;;;;;;;;;;;20.80;62.90;;;;;;468804;253;1145;-46
2021/06/30 07:51:31;;;;;;;;;;;20.80;62.90;;;;;;468829;253;1231;-45
2021/06/30 07:53:32;;;;;;;;;;;20.80;62.90;;;;;;460689;258;1102;-46
2021/06/30 07:55:34;;;;;;;;;;;20.80;62.80;;;;;;468924;253;1111;-46
2021/06/30 07:57:35;;;;;;;;;;;20.80;62.90;;;;;;469033;253;1164;-46
2021/06/30 07:59:36;;;;;;;;;;;20.80;62.90;;;;;;460904;257;1359;-46
2021/06/30 08:01:38;;;;;;;;;;;20.80;62.80;;;;;;469067;249;2202;-45
2021/06/30 08:03:42;;;;;;;;;;;20.80;62.80;;;;;;469047;253;1081;-45
2021/06/30 08:05:40;;;;;;;;;;;20.80;62.80;;;;;;460795;258;2156;-45
2021/06/30 08:07:41;;;;;;;;;;;20.80;62.80;;;;;;468917;253;1196;-45
2021/06/30 08:09:43;;;;;;;;;;;20.80;62.90;;;;;;469111;253;1215;-45
2021/06/30 08:11:44;;;;;;;;;;;20.80;62.90;;;;;;461281;257;1277;-45
2021/06/30 08:13:45;;;;;;;;;;;20.80;62.90;;;;;;469362;253;1089;-45
2021/06/30 08:15:47;;;;;;;;;;;20.80;62.90;;;;;;469004;253;1312;-45
2021/06/30 08:17:48;;;;;;;;;;;20.80;62.90;;;;;;461021;257;1056;-45
2021/06/30 08:19:49;;;;;;;;;;;20.80;62.90;;;;;;469353;253;1305;-45
2021/06/30 08:21:51;;;;;;;;;;;20.80;62.80;;;;;;468867;253;2208;-45
2021/06/30 08:23:52;;;;;;;;;;;20.80;62.90;;;;;;460817;257;1117;-45
2021/06/30 08:25:53;;;;;;;;;;;20.80;62.90;;;;;;468974;253;1218;-45
2021/06/30 08:27:58;;;;;;;;;;;20.80;63.00;;;;;;468810;253;1103;-45
2021/06/30 08:29:58;;;;;;;;;;;20.80;63.00;;;;;;460421;258;2350;-46
2021/06/30 08:31:57;;;;;;;;;;;20.80;62.90;;;;;;468545;250;1682;-45
2021/06/30 08:33:59;;;;;;;;;;;20.80;62.80;;;;;;468798;253;1187;-45
2021/06/30 08:36:00;;;;;;;;;;;20.80;62.90;;;;;;460607;258;1164;-46
2021/06/30 08:38:01;;;;;;;;;;;20.80;62.80;;;;;;468875;253;1565;-45
2021/06/30 08:40:03;;;;;;;;;;;20.80;62.90;;;;;;468781;253;1480;-45
2021/06/30 08:42:04;;;;;;;;;;;20.80;63.00;;;;;;460755;257;2211;-45
2021/06/30 08:44:05;;;;;;;;;;;20.80;63.00;;;;;;468992;253;1096;-45
2021/06/30 08:46:07;;;;;;;;;;;20.80;62.90;;;;;;468883;253;1108;-45
2021/06/30 08:48:08;;;;;;;;;;;20.80;62.80;;;;;;460925;257;1357;-45
2021/06/30 08:50:09;;;;;;;;;;;20.80;63.00;;;;;;469087;253;1177;-45
2021/06/30 08:52:11;;;;;;;;;;;20.80;63.00;;;;;;468968;253;1090;-45
2021/06/30 08:54:13;;;;;;;;;;;20.80;62.90;;;;;;460684;257;1178;-45
2021/06/30 08:56:14;;;;;;;;;;;20.80;62.90;;;;;;468790;253;1216;-45
2021/06/30 08:58:15;;;;;;;;;;;20.80;62.80;;;;;;469004;253;1100;-45
2021/06/30 09:00:17;;;;;;;;;;;20.80;62.80;;;;;;460751;258;1299;-45
2021/06/30 09:02:18;;;;;;;;;;;20.80;62.80;;;;;;468874;253;2129;-45
2021/06/30 09:04:19;;;;;;;;;;;20.80;62.90;;;;;;468981;253;1307;-45
2021/06/30 09:06:20;;;;;;;;;;;20.80;62.90;;;;;;460719;257;1230;-45
2021/06/30 09:08:22;;;;;;;;;;;20.80;62.90;;;;;;468892;253;1247;-45
2021/06/30 09:10:23;;;;;;;;;;;20.80;62.90;;;;;;468963;253;1111;-45
2021/06/30 09:12:24;;;;;;;;;;;20.80;62.90;;;;;;460866;257;1189;-45
2021/06/30 09:14:26;;;;;;;;;;;20.80;62.90;;;;;;468947;253;1153;-45
2021/06/30 09:16:27;;;;;;;;;;;20.80;62.80;;;;;;468850;253;1245;-45
2021/06/30 09:18:30;;;;;;;;;;;20.80;62.90;;;;;;460807;258;1154;-45
2021/06/30 09:20:30;;;;;;;;;;;20.80;62.80;;;;;;468851;253;1770;-45
2021/06/30 09:22:31;;;;;;;;;;;20.80;62.80;;;;;;469017;253;2244;-45
2021/06/30 09:24:32;;;;;;;;;;;20.80;62.80;;;;;;460881;257;1130;-46
2021/06/30 09:26:34;;;;;;;;;;;20.80;63.00;;;;;;469021;253;1438;-45
2021/06/30 09:28:35;;;;;;;;;;;20.80;63.00;;;;;;468804;253;2173;-45
2021/06/30 09:30:36;;;;;;;;;;;20.80;62.90;;;;;;460615;257;1246;-45
2021/06/30 09:32:38;;;;;;;;;;;20.80;62.90;;;;;;468944;253;1235;-45
2021/06/30 09:34:39;;;;;;;;;;;20.80;63.00;;;;;;469046;253;1163;-46
2021/06/30 09:36:40;;;;;;;;;;;20.80;63.00;;;;;;460829;257;1332;-45
2021/06/30 09:38:43;;;;;;;;;;;20.80;62.90;;;;;;468816;253;1132;-45
2021/06/30 09:40:44;;;;;;;;;;;20.80;62.90;;;;;;468816;253;2187;-45
2021/06/30 09:42:45;;;;;;;;;;;20.80;62.90;;;;;;460557;258;1328;-45
2021/06/30 09:44:47;;;;;;;;;;;20.80;62.80;;;;;;468809;253;1113;-45
2021/06/30 09:46:48;;;;;;;;;;;20.80;62.90;;;;;;468823;253;1349;-46
2021/06/30 09:48:49;;;;;;;;;;;20.80;62.90;;;;;;460936;258;1198;-45
2021/06/30 09:50:51;;;;;;;;;;;20.80;62.90;;;;;;468872;253;1181;-45
2021/06/30 09:52:52;;;;;;;;;;;20.80;62.90;;;;;;469081;253;1343;-45
2021/06/30 09:54:53;;;;;;;;;;;20.80;62.80;;;;;;460893;257;1135;-45
2021/06/30 09:56:55;;;;;;;;;;;20.80;62.90;;;;;;469063;253;1860;-45
2021/06/30 09:58:56;;;;;;;;;;;20.80;62.90;;;;;;468918;253;1193;-45
2021/06/30 10:00:57;;;;;;;;;;;20.80;63.00;;;;;;461071;258;2211;-45
2021/06/30 10:03:00;;;;;;;;;;;20.80;62.90;;;;;;469672;253;1272;-45
2021/06/30 10:05:00;;;;;;;;;;;20.80;63.00;;;;;;468582;254;2347;-45
2021/06/30 10:07:01;;;;;;;;;;;20.70;63.00;;;;;;460811;257;1351;-45
2021/06/30 10:09:03;;;;;;;;;;;20.70;63.00;;;;;;469703;253;861;-46
2021/06/30 10:11:04;;;;;;;;;;;20.80;63.00;;;;;;469600;253;1132;-45
2021/06/30 10:13:05;;;;;;;;;;;20.70;63.00;;;;;;460635;257;1273;-45
2021/06/30 10:15:07;;;;;;;;;;;20.80;63.00;;;;;;468663;253;1372;-45
2021/06/30 10:17:08;;;;;;;;;;;20.80;63.00;;;;;;468815;253;1332;-45
2021/06/30 10:19:10;;;;;;;;;;;20.70;63.10;;;;;;460986;258;1183;-45
2021/06/30 10:21:11;;;;;;;;;;;20.70;63.30;;;;;;469438;253;2202;-45
2021/06/30 10:23:12;;;;;;;;;;;20.60;63.50;;;;;;469228;253;1158;-45
2021/06/30 10:25:14;;;;;;;;;;;20.60;63.60;;;;;;460844;258;1126;-45
2021/06/30 10:27:15;;;;;;;;;;;20.50;63.70;;;;;;469187;253;1284;-45
2021/06/30 10:29:16;;;;;;;;;;;20.50;63.70;;;;;;468936;253;1109;-45
2021/06/30 10:31:18;;;;;;;;;;;20.50;63.90;;;;;;460743;258;1217;-45
2021/06/30 10:33:19;;;;;;;;;;;20.50;63.90;;;;;;468861;253;1076;-45
2021/06/30 10:35:23;;;;;;;;;;;20.50;63.80;;;;;;468848;253;1618;-45
2021/06/30 10:37:22;;;;;;;;;;;20.60;63.60;;;;;;460638;258;2258;-46
2021/06/30 10:39:23;;;;;;;;;;;20.60;63.60;;;;;;469273;253;1220;-45
2021/06/30 10:41:24;;;;;;;;;;;20.60;63.40;;;;;;468901;253;2163;-45
2021/06/30 10:43:26;;;;;;;;;;;20.60;63.40;;;;;;460838;257;1243;-45
2021/06/30 10:45:27;;;;;;;;;;;20.60;63.40;;;;;;469047;253;1339;-45
2021/06/30 10:47:28;;;;;;;;;;;20.60;63.30;;;;;;468881;253;1223;-45
2021/06/30 10:49:30;;;;;;;;;;;20.60;63.30;;;;;;460868;258;1270;-45
2021/06/30 10:51:31;;;;;;;;;;;20.70;63.20;;;;;;469097;253;1399;-45
2021/06/30 10:53:34;;;;;;;;;;;20.70;63.30;;;;;;469701;253;1138;-45
2021/06/30 10:55:35;;;;;;;;;;;20.70;63.20;;;;;;460849;258;1333;-45
2021/06/30 10:57:35;;;;;;;;;;;20.60;63.20;;;;;;469177;254;2275;-45
2021/06/30 10:59:37;;;;;;;;;;;20.70;63.30;;;;;;469005;253;1220;-45
2021/06/30 11:01:38;;;;;;;;;;;20.70;63.20;;;;;;460786;257;2196;-45
2021/06/30 11:03:39;;;;;;;;;;;20.70;63.10;;;;;;469170;253;1090;-45
2021/06/30 11:05:41;;;;;;;;;;;20.70;63.20;;;;;;469148;253;1235;-45
2021/06/30 11:07:42;;;;;;;;;;;20.70;63.20;;;;;;461185;257;1319;-45
2021/06/30 11:09:43;;;;;;;;;;;20.70;63.10;;;;;;469001;253;1092;-45
2021/06/30 11:11:45;;;;;;;;;;;20.70;63.00;;;;;;468892;253;1232;-45
2021/06/30 11:13:46;;;;;;;;;;;20.70;62.90;;;;;;460850;257;1098;-45
2021/06/30 11:15:47;;;;;;;;;;;20.70;63.00;;;;;;468576;253;1250;-45
2021/06/30 11:17:48;;;;;;;;;;;20.70;63.10;;;;;;469441;253;1369;-45
2021/06/30 11:19:50;;;;;;;;;;;20.70;63.20;;;;;;461057;258;1401;-45
2021/06/30 11:21:51;;;;;;;;;;;20.70;63.20;;;;;;469088;253;2219;-45
2021/06/30 11:23:55;;;;;;;;;;;20.70;63.20;;;;;;469012;254;1107;-45
2021/06/30 11:25:54;;;;;;;;;;;20.70;63.10;;;;;;460641;258;2468;-44
2021/06/30 11:27:55;;;;;;;;;;;20.70;63.00;;;;;;469186;253;1159;-46
2021/06/30 11:29:58;;;;;;;;;;;20.70;63.00;;;;;;469179;253;947;-45
2021/06/30 11:31:58;;;;;;;;;;;20.70;63.10;;;;;;460909;258;1980;-46
2021/06/30 11:33:59;;;;;;;;;;;20.70;63.00;;;;;;469483;253;899;-45
2021/06/30 11:36:01;;;;;;;;;;;20.70;63.00;;;;;;468946;253;1387;-45
2021/06/30 11:38:02;;;;;;;;;;;20.70;63.00;;;;;;460980;258;1744;-45
2021/06/30 11:40:06;;;;;;;;;;;20.70;62.90;;;;;;469631;253;852;-45
2021/06/30 11:42:08;;;;;;;;;;;20.70;62.90;;;;;;461219;253;2192;-45
2021/06/30 11:44:10;;;;;;;;;;;20.70;63.00;;;;;;469082;254;1390;-45
2021/06/30 11:46:08;;;;;;;;;;;20.70;62.90;;;;;;468577;254;2122;-45
2021/06/30 11:48:09;;;;;;;;;;;20.80;63.00;;;;;;460718;257;1248;-45
2021/06/30 11:50:16;;;;;;;;;;;20.70;63.00;;;;;;468934;253;1195;-45
2021/06/30 11:52:12;;;;;;;;;;;20.70;63.00;;;;;;468413;254;1543;-45
2021/06/30 11:54:13;;;;;;;;;;;20.70;63.00;;;;;;460783;257;1206;-45
2021/06/30 11:56:15;;;;;;;;;;;20.70;63.10;;;;;;468980;253;1270;-45